Time;durP1;ratioP1;P1;durP2;ratioP2;P2;SDS_P1;SDS_P2;PMS_P1;PMS_P2;Temp;Humidity;BMP_temperature;BMP_pressure;BME280_temperature;BME280_humidity;BME280_pressure;Samples;Min_cycle;Max_cycle;Signal;HPM_P1;HPM_P2
2022/05/19 00:01:08;;;;;;;6.63;5.83;;;23.90;50.10;;;;;;5076526;28;20440;-87
2022/05/19 00:03:36;;;;;;;6.53;4.77;;;23.90;50.30;;;;;;5058152;28;20463;-87
2022/05/19 00:06:05;;;;;;;4.90;4.50;;;23.70;50.10;;;;;;5070313;28;20448;-87
2022/05/19 00:08:32;;;;;;;5.90;5.30;;;23.50;49.80;;;;;;5055431;28;20444;-88
2022/05/19 00:11:02;;;;;;;5.10;4.70;;;23.30;49.60;;;;;;5039666;28;20461;-87
2022/05/19 00:13:31;;;;;;;5.60;4.93;;;23.30;49.90;;;;;;5059216;28;20465;-88
2022/05/19 00:15:58;;;;;;;5.37;4.87;;;23.30;50.20;;;;;;5046159;28;20447;-88
2022/05/19 00:18:27;;;;;;;5.33;4.67;;;23.40;50.20;;;;;;5089772;28;20448;-88
2022/05/19 00:20:54;;;;;;;5.30;4.80;;;23.40;49.80;;;;;;5058118;28;21253;-86
2022/05/19 00:23:21;;;;;;;5.17;4.67;;;23.40;49.70;;;;;;5072413;28;20478;-86
2022/05/19 00:25:48;;;;;;;4.63;4.23;;;23.40;49.60;;;;;;5089372;28;20515;-87
2022/05/19 00:28:15;;;;;;;8.43;5.23;;;23.40;49.50;;;;;;5071514;28;20507;-87
2022/05/19 00:30:43;;;;;;;4.90;4.50;;;23.40;49.70;;;;;;5067211;28;20529;-87
2022/05/19 00:33:11;;;;;;;5.43;4.93;;;23.30;50.00;;;;;;5044911;28;20515;-89
2022/05/19 00:35:41;;;;;;;5.83;5.23;;;23.30;50.40;;;;;;5070341;28;20508;-87
2022/05/19 00:38:08;;;;;;;6.13;5.53;;;23.20;50.80;;;;;;5049199;28;20482;-87
2022/05/19 00:40:37;;;;;;;5.50;4.97;;;23.20;50.90;;;;;;5080236;28;20874;-87
2022/05/19 00:43:04;;;;;;;5.93;5.37;;;23.10;51.10;;;;;;5072911;28;20892;-88
2022/05/19 00:45:41;;;;;;;10.30;5.50;;;23.10;51.10;;;;;;5069460;28;21178;-87
2022/05/19 00:48:15;;;;;;;5.57;4.97;;;23.10;51.30;;;;;;5069126;28;20720;-88
2022/05/19 00:50:48;;;;;;;6.07;5.47;;;23.10;51.60;;;;;;5073145;28;20447;-87
2022/05/19 00:53:27;;;;;;;11.03;5.60;;;23.00;51.50;;;;;;5072027;28;20482;-86
2022/05/19 00:55:56;;;;;;;5.83;5.33;;;23.00;51.80;;;;;;5076183;28;20886;-88
2022/05/19 00:58:27;;;;;;;5.70;5.10;;;23.00;51.70;;;;;;5081826;28;20489;-87
2022/05/19 01:00:55;;;;;;;8.37;5.87;;;22.90;51.50;;;;;;5057700;28;20447;-87
2022/05/19 01:03:24;;;;;;;6.07;5.40;;;22.90;51.50;;;;;;5055174;28;20831;-87
2022/05/19 01:05:57;;;;;;;7.90;5.63;;;22.90;51.50;;;;;;5077116;28;20463;-87
2022/05/19 01:08:29;;;;;;;7.97;5.50;;;22.90;51.60;;;;;;5073154;28;20443;-87
2022/05/19 01:10:57;;;;;;;6.43;5.77;;;22.90;51.60;;;;;;5058651;28;20424;-87
2022/05/19 01:13:29;;;;;;;6.10;5.50;;;22.90;51.60;;;;;;5069839;28;20586;-87
2022/05/19 01:15:58;;;;;;;6.03;5.53;;;22.80;51.40;;;;;;5068879;28;20554;-87
2022/05/19 01:18:27;;;;;;;6.40;5.67;;;22.70;51.20;;;;;;5071202;28;20455;-87
2022/05/19 01:20:56;;;;;;;5.93;5.30;;;22.70;51.50;;;;;;5055757;28;20825;-87
2022/05/19 01:23:39;;;;;;;6.73;5.80;;;22.70;51.60;;;;;;5080722;28;20464;-87
2022/05/19 01:26:14;;;;;;;6.07;5.47;;;22.60;51.70;;;;;;5072178;28;20438;-87
2022/05/19 01:28:44;;;;;;;8.30;5.50;;;22.50;51.80;;;;;;5079942;28;20435;-90
2022/05/19 01:31:30;;;;;;;7.03;5.37;;;22.50;51.90;;;;;;5070914;28;20986;-88
2022/05/19 01:33:57;;;;;;;8.23;5.77;;;22.50;52.00;;;;;;5085685;28;20473;-89
2022/05/19 01:36:24;;;;;;;5.60;5.10;;;22.50;51.90;;;;;;5070288;28;20452;-87
2022/05/19 01:38:59;;;;;;;6.33;5.73;;;22.40;51.70;;;;;;5071308;28;20459;-86
2022/05/19 01:41:44;;;;;;;6.30;5.10;;;22.40;51.40;;;;;;5079868;28;20448;-87
2022/05/19 01:44:28;;;;;;;5.30;4.90;;;22.40;51.20;;;;;;5070714;28;20474;-88
2022/05/19 01:47:03;;;;;;;5.30;4.90;;;22.40;51.00;;;;;;5087379;28;20435;-86
2022/05/19 01:49:38;;;;;;;8.47;5.37;;;22.40;50.90;;;;;;5063599;28;20538;-88
2022/05/19 01:52:11;;;;;;;6.73;5.00;;;22.30;51.00;;;;;;5072139;28;20459;-87
2022/05/19 01:54:46;;;;;;;5.50;5.00;;;22.30;51.10;;;;;;5070877;28;20492;-87
2022/05/19 01:57:19;;;;;;;4.63;4.23;;;22.30;51.20;;;;;;5064018;28;20442;-89
2022/05/19 01:59:54;;;;;;;7.97;4.13;;;22.20;51.00;;;;;;5088613;28;20990;-88
2022/05/19 02:02:29;;;;;;;5.60;5.03;;;22.20;51.00;;;;;;5090637;28;20516;-85
2022/05/19 02:05:03;;;;;;;6.53;4.90;;;22.10;51.10;;;;;;5086939;28;20444;-88
2022/05/19 02:07:34;;;;;;;7.10;5.30;;;22.00;51.70;;;;;;5071495;28;20458;-87
2022/05/19 02:10:05;;;;;;;5.40;4.90;;;21.90;51.80;;;;;;5071160;28;21167;-89
2022/05/19 02:12:34;;;;;;;8.50;5.17;;;21.90;51.90;;;;;;5068884;28;20462;-87
2022/05/19 02:15:06;;;;;;;5.83;5.23;;;21.90;52.10;;;;;;5088664;28;20435;-88
2022/05/19 02:17:34;;;;;;;6.53;5.93;;;21.90;52.20;;;;;;5071457;28;20493;-88
2022/05/19 02:20:08;;;;;;;5.50;4.70;;;21.90;52.20;;;;;;5069398;28;20455;-88
2022/05/19 02:22:38;;;;;;;9.20;6.17;;;22.00;52.30;;;;;;5071311;28;20435;-89
2022/05/19 02:25:11;;;;;;;6.10;5.57;;;21.90;52.30;;;;;;5068368;28;20596;-88
2022/05/19 02:27:42;;;;;;;5.37;4.80;;;21.90;52.10;;;;;;5087590;28;20463;-86
2022/05/19 02:30:15;;;;;;;6.53;5.93;;;21.90;52.30;;;;;;5087815;28;20460;-89
2022/05/19 02:32:42;;;;;;;9.00;6.57;;;21.80;52.10;;;;;;5069642;28;20556;-88
2022/05/19 02:35:09;;;;;;;6.57;5.97;;;21.90;52.30;;;;;;5079400;28;20442;-87
2022/05/19 02:37:37;;;;;;;6.50;5.20;;;21.80;52.30;;;;;;5090239;28;20449;-89
2022/05/19 02:40:06;;;;;;;7.30;5.77;;;21.80;52.40;;;;;;5089619;28;20530;-87
2022/05/19 02:42:33;;;;;;;7.17;6.43;;;21.70;52.60;;;;;;5071780;28;20449;-87
2022/05/19 02:45:00;;;;;;;6.67;6.07;;;21.60;52.60;;;;;;5046721;28;20512;-89
2022/05/19 02:47:28;;;;;;;10.37;6.10;;;21.60;52.80;;;;;;5073427;28;21195;-87
2022/05/19 02:49:56;;;;;;;6.73;6.03;;;21.60;52.70;;;;;;5087869;28;20513;-87
2022/05/19 02:52:23;;;;;;;7.87;5.97;;;21.50;52.50;;;;;;5089965;28;20473;-88
2022/05/19 02:54:50;;;;;;;9.00;5.70;;;21.50;52.70;;;;;;5046177;28;20452;-87
2022/05/19 02:57:16;;;;;;;6.40;5.80;;;21.50;52.70;;;;;;5063984;28;20435;-87
2022/05/19 02:59:43;;;;;;;6.47;5.53;;;21.40;52.40;;;;;;5069359;28;20515;-87
2022/05/19 03:02:10;;;;;;;6.53;5.93;;;21.40;52.30;;;;;;5052646;28;20530;-87
2022/05/19 03:04:39;;;;;;;6.30;5.50;;;21.30;51.90;;;;;;5070902;28;20462;-88
2022/05/19 03:07:06;;;;;;;6.67;5.50;;;21.30;52.20;;;;;;5074364;28;20455;-87
2022/05/19 03:09:33;;;;;;;7.70;6.03;;;21.20;52.90;;;;;;5087358;28;20454;-87
2022/05/19 03:12:00;;;;;;;8.23;5.60;;;21.20;53.30;;;;;;5068059;28;20448;-87
2022/05/19 03:14:26;;;;;;;7.27;6.10;;;21.20;53.10;;;;;;5064979;28;20471;-87
2022/05/19 03:16:53;;;;;;;6.87;6.17;;;21.20;52.80;;;;;;5080563;28;21123;-87
2022/05/19 03:19:21;;;;;;;6.73;5.80;;;21.10;52.30;;;;;;5072707;28;21164;-88
2022/05/19 03:21:49;;;;;;;7.77;6.97;;;21.10;52.80;;;;;;5066211;28;21205;-89
2022/05/19 03:24:17;;;;;;;7.13;5.90;;;21.10;52.80;;;;;;5059640;28;20851;-89
2022/05/19 03:26:44;;;;;;;6.50;5.60;;;21.00;53.20;;;;;;5092418;28;20439;-87
2022/05/19 03:29:11;;;;;;;7.83;5.63;;;21.00;53.00;;;;;;5071465;28;20460;-87
2022/05/19 03:31:38;;;;;;;6.57;5.67;;;21.00;52.80;;;;;;5049695;28;20498;-88
2022/05/19 03:34:05;;;;;;;6.90;5.57;;;21.00;52.90;;;;;;5077477;28;20486;-88
2022/05/19 03:36:32;;;;;;;6.83;6.10;;;21.00;52.90;;;;;;5058959;28;20444;-87
2022/05/19 03:39:01;;;;;;;7.60;6.00;;;21.00;53.10;;;;;;5073169;28;20821;-88
2022/05/19 03:41:27;;;;;;;6.00;5.40;;;21.00;53.20;;;;;;5065261;28;20439;-88
2022/05/19 03:43:54;;;;;;;7.10;6.00;;;21.00;52.70;;;;;;5066356;28;21337;-86
2022/05/19 03:46:21;;;;;;;6.07;5.47;;;20.90;52.80;;;;;;5089547;28;20451;-88
2022/05/19 03:48:48;;;;;;;7.50;6.30;;;20.90;53.10;;;;;;5090225;28;20458;-85
2022/05/19 03:51:22;;;;;;;6.47;5.80;;;20.80;53.20;;;;;;5075947;28;20566;-88
2022/05/19 03:53:49;;;;;;;7.33;5.90;;;20.80;53.30;;;;;;5097039;28;20487;-87
2022/05/19 03:56:18;;;;;;;8.23;5.40;;;20.80;53.30;;;;;;5092233;28;20450;-87
2022/05/19 03:58:45;;;;;;;6.90;6.20;;;20.80;53.40;;;;;;5048373;28;20817;-88
2022/05/19 04:01:13;;;;;;;7.40;6.70;;;20.80;53.70;;;;;;5054488;28;20448;-88
2022/05/19 04:03:40;;;;;;;7.53;6.00;;;20.80;53.60;;;;;;5089165;28;20467;-87
2022/05/19 04:06:07;;;;;;;8.40;5.70;;;20.90;53.70;;;;;;5071829;28;21027;-87
2022/05/19 04:08:36;;;;;;;6.80;6.00;;;20.90;53.60;;;;;;5074177;28;20436;-87
2022/05/19 04:11:03;;;;;;;6.70;5.93;;;20.90;53.60;;;;;;5081567;28;20459;-87
2022/05/19 04:13:32;;;;;;;7.73;6.13;;;20.80;53.40;;;;;;5093027;28;20578;-89
2022/05/19 04:15:59;;;;;;;6.90;5.47;;;20.80;53.50;;;;;;5091155;28;20443;-88
2022/05/19 04:18:26;;;;;;;6.60;6.00;;;20.80;53.60;;;;;;5058410;28;20436;-88
2022/05/19 04:20:53;;;;;;;7.83;6.00;;;20.80;53.90;;;;;;5048389;28;20459;-88
2022/05/19 04:23:20;;;;;;;6.70;6.10;;;20.90;53.70;;;;;;5065246;28;21182;-87
2022/05/19 04:25:47;;;;;;;6.63;6.00;;;20.90;53.70;;;;;;5065139;28;20451;-90
2022/05/19 04:28:15;;;;;;;8.30;6.13;;;20.90;53.60;;;;;;5055069;28;20439;-87
2022/05/19 04:30:43;;;;;;;7.73;6.10;;;20.90;53.80;;;;;;5052505;28;20439;-87
2022/05/19 04:33:12;;;;;;;6.80;6.10;;;20.90;53.70;;;;;;5071263;28;20479;-88
2022/05/19 04:35:40;;;;;;;8.93;5.87;;;20.90;53.90;;;;;;5074019;28;20846;-89
2022/05/19 04:38:08;;;;;;;7.43;6.70;;;20.90;54.30;;;;;;5088703;28;21077;-87
2022/05/19 04:40:37;;;;;;;6.60;5.90;;;20.90;54.10;;;;;;5062742;28;20463;-87
2022/05/19 04:43:05;;;;;;;6.53;5.93;;;20.90;54.00;;;;;;5081435;28;20561;-88
2022/05/19 04:45:32;;;;;;;6.80;6.10;;;20.90;54.20;;;;;;5087930;28;20947;-89
2022/05/19 04:48:01;;;;;;;7.57;6.20;;;20.90;54.30;;;;;;5074045;28;20979;-87
2022/05/19 04:50:29;;;;;;;6.53;5.80;;;21.00;54.20;;;;;;5060226;28;20527;-87
2022/05/19 04:52:58;;;;;;;8.57;7.03;;;21.00;54.40;;;;;;5072348;28;20486;-86
2022/05/19 04:55:25;;;;;;;9.37;6.43;;;21.10;54.30;;;;;;5072376;28;20797;-88
2022/05/19 04:57:52;;;;;;;7.90;7.03;;;21.10;54.30;;;;;;5073627;28;20454;-88
2022/05/19 05:00:19;;;;;;;7.20;6.03;;;21.10;54.30;;;;;;5089758;28;20443;-88
2022/05/19 05:02:46;;;;;;;7.87;7.10;;;21.10;54.30;;;;;;5058499;28;20461;-88
2022/05/19 05:05:15;;;;;;;15.10;6.97;;;21.10;54.50;;;;;;5072027;28;20470;-89
2022/05/19 05:07:42;;;;;;;7.10;6.40;;;21.20;54.60;;;;;;5089312;28;20443;-88
2022/05/19 05:10:09;;;;;;;8.40;7.37;;;21.20;54.20;;;;;;5071985;28;20948;-87
2022/05/19 05:12:36;;;;;;;10.07;7.30;;;21.20;54.30;;;;;;5089943;28;20456;-87
2022/05/19 05:15:04;;;;;;;7.23;6.53;;;21.20;54.40;;;;;;5069928;28;20455;-87
2022/05/19 05:17:31;;;;;;;7.90;6.20;;;21.20;54.30;;;;;;5057876;28;20504;-89
2022/05/19 05:19:58;;;;;;;7.30;6.70;;;21.20;54.30;;;;;;5053236;28;20451;-89
2022/05/19 05:22:30;;;;;;;9.00;6.17;;;21.10;54.40;;;;;;5069862;28;20435;-87
2022/05/19 05:24:57;;;;;;;8.63;6.27;;;21.10;54.30;;;;;;5058470;28;20448;-87
2022/05/19 05:27:24;;;;;;;10.23;7.63;;;21.20;54.40;;;;;;5090468;28;20458;-87
2022/05/19 05:29:52;;;;;;;8.33;7.53;;;21.20;54.30;;;;;;5072511;28;20978;-87
2022/05/19 05:32:19;;;;;;;7.70;6.90;;;21.30;54.30;;;;;;5052533;28;20446;-86
2022/05/19 05:34:46;;;;;;;7.47;5.80;;;21.50;54.30;;;;;;5059312;28;20471;-87
2022/05/19 05:37:13;;;;;;;8.87;7.93;;;21.50;54.50;;;;;;5088993;28;20455;-89
2022/05/19 05:39:41;;;;;;;7.53;6.73;;;21.30;54.30;;;;;;5060536;28;20455;-87
2022/05/19 05:42:09;;;;;;;7.53;6.83;;;21.30;54.80;;;;;;5063586;28;20509;-87
2022/05/19 05:44:36;;;;;;;7.50;6.70;;;21.30;55.10;;;;;;5069825;28;20468;-87
2022/05/19 05:47:04;;;;;;;9.00;6.63;;;21.40;54.90;;;;;;5072191;28;20435;-88
2022/05/19 05:49:30;;;;;;;7.97;7.17;;;21.50;54.10;;;;;;5068668;28;20532;-88
2022/05/19 05:51:57;;;;;;;12.00;7.60;;;21.50;54.20;;;;;;5087433;28;20448;-88
2022/05/19 05:54:24;;;;;;;7.70;7.00;;;21.60;54.30;;;;;;5051305;28;20595;-87
2022/05/19 05:56:53;;;;;;;7.47;6.77;;;21.70;54.40;;;;;;5061802;28;21294;-88
2022/05/19 05:59:20;;;;;;;10.50;7.57;;;21.90;54.40;;;;;;5072422;28;20436;-88
2022/05/19 06:01:47;;;;;;;7.57;6.77;;;22.10;54.00;;;;;;5071288;28;20470;-87
2022/05/19 06:04:15;;;;;;;9.80;7.07;;;22.20;53.90;;;;;;5062747;28;20852;-88
2022/05/19 06:06:45;;;;;;;12.87;7.40;;;22.20;53.40;;;;;;5087364;28;20463;-87
2022/05/19 06:09:12;;;;;;;7.23;6.40;;;22.30;53.50;;;;;;5087560;28;20513;-88
2022/05/19 06:11:40;;;;;;;7.77;6.90;;;22.30;53.10;;;;;;5060728;28;20455;-87
2022/05/19 06:14:09;;;;;;;8.97;8.17;;;22.20;53.90;;;;;;5067466;28;20479;-87
2022/05/19 06:16:36;;;;;;;7.00;6.30;;;22.20;53.90;;;;;;5069997;28;20447;-88
2022/05/19 06:19:05;;;;;;;9.23;7.83;;;22.40;52.90;;;;;;5068350;28;20443;-87
2022/05/19 06:21:36;;;;;;;6.80;6.10;;;22.60;53.20;;;;;;5058093;28;20446;-87
2022/05/19 06:24:08;;;;;;;8.10;6.73;;;22.80;53.00;;;;;;5069403;28;20541;-87
2022/05/19 06:26:35;;;;;;;8.80;6.40;;;23.00;52.80;;;;;;5088672;28;20435;-88
2022/05/19 06:29:02;;;;;;;6.80;5.83;;;23.10;52.50;;;;;;5067908;28;20778;-87
2022/05/19 06:31:32;;;;;;;6.80;6.10;;;22.90;51.80;;;;;;5059145;28;20447;-89
2022/05/19 06:33:59;;;;;;;6.47;5.63;;;22.90;51.40;;;;;;5058816;28;20511;-87
2022/05/19 06:36:26;;;;;;;6.40;5.80;;;23.10;52.30;;;;;;5087934;28;20443;-86
2022/05/19 06:38:54;;;;;;;8.00;5.77;;;23.10;51.60;;;;;;5059324;28;20464;-86
2022/05/19 06:44:06;;;;;;;5.83;5.33;;;23.00;51.00;;;;;;5084677;28;20466;-87
2022/05/19 06:46:34;;;;;;;8.70;5.77;;;23.10;50.90;;;;;;5061492;28;20464;-88
2022/05/19 06:49:04;;;;;;;5.87;5.33;;;23.40;50.90;;;;;;5070188;28;20996;-87
2022/05/19 06:51:33;;;;;;;8.70;5.23;;;23.70;50.50;;;;;;5062989;28;20525;-87
2022/05/19 06:54:00;;;;;;;11.67;5.57;;;23.90;50.50;;;;;;5063748;28;20730;-86
2022/05/19 06:56:28;;;;;;;6.33;5.37;;;24.10;50.30;;;;;;5060263;28;20812;-88
2022/05/19 06:58:56;;;;;;;10.17;5.00;;;24.30;47.50;;;;;;5072787;28;20451;-85
2022/05/19 07:01:23;;;;;;;6.70;4.37;;;24.20;47.90;;;;;;5074387;28;20501;-87
2022/05/19 07:03:52;;;;;;;4.53;4.10;;;24.30;46.50;;;;;;5091899;28;21436;-86
2022/05/19 07:06:19;;;;;;;3.50;3.20;;;24.30;45.00;;;;;;5072981;28;20557;-87
2022/05/19 07:08:45;;;;;;;3.37;3.07;;;24.10;43.10;;;;;;5090303;28;20467;-86
2022/05/19 07:11:25;;;;;;;2.90;2.70;;;24.10;44.10;;;;;;5092164;28;20457;-87
2022/05/19 07:13:55;;;;;;;6.67;2.73;;;24.10;42.60;;;;;;5090685;28;20483;-86
2022/05/19 07:16:22;;;;;;;4.77;3.50;;;24.30;43.70;;;;;;5055527;28;20452;-88
2022/05/19 07:18:50;;;;;;;3.50;3.20;;;24.50;44.50;;;;;;5090950;28;20459;-88
2022/05/19 07:21:18;;;;;;;3.60;2.60;;;24.80;42.10;;;;;;5093243;28;20462;-86
2022/05/19 07:23:47;;;;;;;3.90;3.13;;;24.80;41.80;;;;;;5089816;28;20458;-88
2022/05/19 07:26:14;;;;;;;4.30;2.50;;;24.90;40.50;;;;;;5090880;28;20517;-87
2022/05/19 07:28:41;;;;;;;2.77;2.40;;;25.00;39.10;;;;;;5071736;27;20565;-87
2022/05/19 07:31:08;;;;;;;4.87;3.00;;;25.00;39.10;;;;;;5071327;28;20455;-86
2022/05/19 07:33:36;;;;;;;4.33;3.00;;;25.20;40.40;;;;;;5093239;28;20479;-87
2022/05/19 07:36:08;;;;;;;2.80;2.60;;;25.40;39.70;;;;;;5064613;28;20452;-86
2022/05/19 07:38:36;;;;;;;3.17;2.90;;;25.50;39.40;;;;;;5072454;28;20443;-88
2022/05/19 07:41:04;;;;;;;3.10;2.83;;;25.60;39.30;;;;;;5071072;28;20946;-87
2022/05/19 07:43:37;;;;;;;6.83;2.50;;;25.60;37.80;;;;;;5064251;28;20483;-86
2022/05/19 07:46:05;;;;;;;2.70;2.50;;;25.40;37.70;;;;;;5059589;28;21239;-87
2022/05/19 07:48:33;;;;;;;3.00;2.73;;;25.50;38.30;;;;;;5093463;28;20868;-86
2022/05/19 07:51:00;;;;;;;3.13;2.90;;;25.40;38.10;;;;;;5090873;28;20443;-86
2022/05/19 07:53:27;;;;;;;3.00;2.70;;;25.60;37.70;;;;;;5089171;28;20467;-85
2022/05/19 07:55:56;;;;;;;5.23;2.80;;;25.70;37.50;;;;;;5074429;28;20452;-86
2022/05/19 07:58:23;;;;;;;2.47;2.27;;;25.70;37.40;;;;;;5085397;28;20458;-87
2022/05/19 08:00:51;;;;;;;3.67;2.50;;;25.80;37.90;;;;;;5054918;28;20456;-88
2022/05/19 08:03:18;;;;;;;5.00;2.63;;;25.80;36.70;;;;;;5072089;28;20473;-86
2022/05/19 08:05:46;;;;;;;10.93;3.10;;;26.00;37.70;;;;;;5088437;28;21279;-86
2022/05/19 08:08:12;;;;;;;2.90;2.63;;;26.20;37.10;;;;;;5090849;28;20451;-86
2022/05/19 08:10:39;;;;;;;3.30;2.90;;;26.20;36.60;;;;;;5088517;28;20955;-86
2022/05/19 08:15:52;;;;;;;2.73;2.53;;;26.40;35.40;;;;;;5070039;28;20823;-87
2022/05/19 08:18:21;;;;;;;2.73;2.40;;;26.40;37.10;;;;;;5051678;28;20444;-86
2022/05/19 08:20:50;;;;;;;3.67;2.77;;;26.50;36.40;;;;;;5068666;28;20645;-87
2022/05/19 08:23:20;;;;;;;2.40;1.90;;;26.50;38.00;;;;;;5074397;28;20475;-87
2022/05/19 08:25:48;;;;;;;6.57;2.73;;;26.90;37.90;;;;;;5088186;28;20431;-87
2022/05/19 08:28:18;;;;;;;3.17;2.83;;;27.20;36.80;;;;;;5062947;28;20451;-88
2022/05/19 08:30:51;;;;;;;4.70;2.47;;;27.10;36.80;;;;;;5051174;28;20438;-88
2022/05/19 08:33:19;;;;;;;3.13;2.87;;;27.40;37.40;;;;;;5054649;28;20512;-87
2022/05/19 08:35:47;;;;;;;3.77;2.33;;;27.60;36.30;;;;;;5070877;28;20557;-87
2022/05/19 08:38:14;;;;;;;3.20;2.90;;;27.80;34.30;;;;;;5070841;28;20463;-87
2022/05/19 08:40:45;;;;;;;2.93;2.73;;;27.90;36.70;;;;;;5068306;28;20556;-87
2022/05/19 08:43:15;;;;;;;3.50;2.90;;;27.90;36.50;;;;;;5087936;28;21372;-87
2022/05/19 08:45:48;;;;;;;3.00;2.73;;;27.90;35.20;;;;;;5067434;28;21374;-87
2022/05/19 08:48:20;;;;;;;3.00;2.53;;;28.00;36.40;;;;;;5090609;28;20459;-86
2022/05/19 08:50:53;;;;;;;5.90;2.30;;;27.20;34.30;;;;;;5072571;28;20439;-86
2022/05/19 08:53:20;;;;;;;2.73;2.53;;;27.10;35.90;;;;;;5088417;28;20486;-87
2022/05/19 08:55:51;;;;;;;3.00;2.40;;;27.40;35.90;;;;;;5088673;28;20487;-87
2022/05/19 08:58:46;;;;;;;3.47;2.70;;;27.70;36.70;;;;;;5074243;28;20997;-87
2022/05/19 09:01:21;;;;;;;2.13;1.97;;;28.00;35.70;;;;;;5053166;28;20466;-88
2022/05/19 09:04:02;;;;;;;2.90;2.60;;;28.40;35.60;;;;;;5090520;28;20474;-87
2022/05/19 09:07:56;;;;;;;8.33;3.20;;;28.60;34.60;;;;;;5089928;28;21226;-87
2022/05/19 09:09:50;;;;;;;2.97;2.67;;;28.70;35.30;;;;;;5086862;28;20811;-87
2022/05/19 09:12:22;;;;;;;2.93;2.60;;;28.90;34.60;;;;;;5087208;28;20439;-87
2022/05/19 09:14:50;;;;;;;2.43;2.23;;;29.00;35.20;;;;;;5066917;28;20558;-87
2022/05/19 09:17:19;;;;;;;2.40;2.20;;;29.20;35.70;;;;;;5073501;28;20456;-87
2022/05/19 09:19:50;;;;;;;2.43;2.30;;;28.90;34.00;;;;;;5072665;28;20582;-86
2022/05/19 09:22:20;;;;;;;2.70;2.50;;;29.20;35.20;;;;;;5070222;28;20455;-88
2022/05/19 09:24:49;;;;;;;2.77;2.53;;;29.40;34.00;;;;;;5054107;28;20798;-85
2022/05/19 09:27:19;;;;;;;3.17;2.30;;;29.40;34.10;;;;;;5087116;28;20942;-87
2022/05/19 09:29:49;;;;;;;2.90;2.10;;;29.40;32.80;;;;;;5044013;28;21026;-88
2022/05/19 09:32:23;;;;;;;2.40;2.30;;;29.70;34.70;;;;;;5072635;28;21181;-86
2022/05/19 09:34:52;;;;;;;2.47;2.27;;;29.90;34.10;;;;;;5086886;28;20491;-89
2022/05/19 09:37:22;;;;;;;3.60;2.90;;;30.10;33.90;;;;;;5086902;28;20509;-87
2022/05/19 09:39:52;;;;;;;4.13;2.37;;;30.30;32.30;;;;;;5090487;28;20455;-86
2022/05/19 09:42:23;;;;;;;6.47;2.83;;;30.30;32.50;;;;;;5089629;28;20483;-88
2022/05/19 09:44:56;;;;;;;4.37;2.73;;;30.20;32.80;;;;;;5070112;28;20459;-87
2022/05/19 09:47:31;;;;;;;2.73;2.53;;;30.20;34.00;;;;;;5054201;28;20424;-87
2022/05/19 09:50:07;;;;;;;3.00;2.30;;;30.30;34.50;;;;;;5050201;28;20447;-87
2022/05/19 09:52:34;;;;;;;3.60;2.50;;;30.60;31.90;;;;;;5088687;28;20455;-88
2022/05/19 09:55:04;;;;;;;6.07;2.73;;;30.60;32.20;;;;;;5075983;28;20479;-88
2022/05/19 09:57:40;;;;;;;6.57;2.30;;;30.80;33.10;;;;;;5065954;28;20459;-87
2022/05/19 10:00:18;;;;;;;2.50;2.30;;;30.90;32.10;;;;;;5084776;28;20450;-87
2022/05/19 10:02:52;;;;;;;2.57;2.37;;;30.90;33.50;;;;;;5071378;28;20478;-87
2022/05/19 10:05:28;;;;;;;3.70;2.37;;;31.10;33.70;;;;;;5088043;28;20462;-88
2022/05/19 10:08:00;;;;;;;2.83;2.63;;;31.30;32.40;;;;;;5088306;28;20451;-85
2022/05/19 10:10:30;;;;;;;2.60;2.40;;;31.40;31.40;;;;;;5054128;28;20440;-86
2022/05/19 10:13:03;;;;;;;4.20;2.60;;;31.50;31.30;;;;;;5069687;28;20475;-88
2022/05/19 10:15:44;;;;;;;3.30;2.63;;;31.60;32.00;;;;;;5067868;28;20884;-88
2022/05/19 10:18:20;;;;;;;3.40;2.37;;;31.20;31.80;;;;;;5073028;28;20451;-87
2022/05/19 10:20:59;;;;;;;2.80;2.30;;;31.20;32.50;;;;;;5059607;28;20443;-87
2022/05/19 10:23:50;;;;;;;2.63;2.43;;;31.10;30.00;;;;;;5090298;28;21124;-88
2022/05/19 10:26:34;;;;;;;3.50;2.50;;;30.90;33.00;;;;;;5091526;28;20455;-87
2022/05/19 10:32:27;;;;;;;4.00;2.53;;;31.10;32.70;;;;;;5074502;28;20440;-89
2022/05/19 10:35:08;;;;;;;2.60;2.40;;;31.40;32.00;;;;;;5078642;28;20931;-88
2022/05/19 10:37:57;;;;;;;2.77;2.57;;;31.70;32.70;;;;;;5069107;28;20570;-87
2022/05/19 10:40:41;;;;;;;3.10;2.80;;;31.70;31.80;;;;;;5081401;28;20545;-89
2022/05/19 10:43:22;;;;;;;3.43;2.10;;;31.30;31.40;;;;;;5074540;28;20484;-88
2022/05/19 10:45:50;;;;;;;3.47;2.50;;;30.80;31.70;;;;;;5070259;28;20459;-87
2022/05/19 10:48:42;;;;;;;3.17;2.57;;;31.00;33.10;;;;;;5071212;28;20451;-88
2022/05/19 10:51:14;;;;;;;8.33;2.60;;;31.40;32.70;;;;;;5074901;28;20443;-88
2022/05/19 10:53:54;;;;;;;2.87;2.60;;;32.10;32.80;;;;;;5091570;28;21880;-87
2022/05/19 10:56:46;;;;;;;4.57;2.83;;;32.30;32.40;;;;;;5059705;28;20836;-86
2022/05/19 10:59:30;;;;;;;3.13;2.83;;;32.10;30.30;;;;;;5074180;28;20463;-88
2022/05/19 11:02:12;;;;;;;2.80;2.33;;;32.20;30.70;;;;;;5089497;28;20439;-88
2022/05/19 11:05:09;;;;;;;2.70;2.50;;;32.60;32.10;;;;;;5057993;28;20451;-87
2022/05/19 11:07:49;;;;;;;3.43;2.60;;;33.00;30.90;;;;;;5071623;28;20552;-89
2022/05/19 11:10:28;;;;;;;2.40;2.20;;;32.80;29.90;;;;;;5074166;28;20861;-87
2022/05/19 11:13:10;;;;;;;2.67;2.40;;;33.00;31.40;;;;;;5062053;28;20470;-89
2022/05/19 11:15:44;;;;;;;4.27;2.60;;;33.20;30.30;;;;;;5070216;28;21364;-87
2022/05/19 11:18:19;;;;;;;2.57;2.37;;;33.30;29.50;;;;;;5090774;28;20550;-89
2022/05/19 11:21:00;;;;;;;2.40;2.20;;;33.10;29.80;;;;;;5042176;28;20946;-88
2022/05/19 11:23:36;;;;;;;2.50;2.30;;;32.90;30.30;;;;;;5090024;28;20474;-87
2022/05/19 11:26:26;;;;;;;2.50;2.23;;;32.60;29.80;;;;;;5089731;28;20439;-88
2022/05/19 11:29:07;;;;;;;2.70;2.50;;;32.70;30.90;;;;;;5076166;28;20581;-90
2022/05/19 11:31:41;;;;;;;2.60;2.40;;;32.60;30.00;;;;;;5088965;28;21381;-89
2022/05/19 11:34:18;;;;;;;3.30;3.00;;;32.30;30.30;;;;;;5061944;28;20459;-87
2022/05/19 11:36:52;;;;;;;4.00;2.50;;;32.40;30.60;;;;;;5072894;28;20475;-87
2022/05/19 11:39:27;;;;;;;3.00;2.50;;;32.50;30.90;;;;;;5087895;28;20901;-88
2022/05/19 11:41:59;;;;;;;2.40;2.20;;;32.90;31.50;;;;;;5074691;28;20546;-89
2022/05/19 11:44:31;;;;;;;3.27;2.73;;;33.40;31.00;;;;;;5089724;28;20486;-88
2022/05/19 11:47:03;;;;;;;2.53;2.33;;;33.30;30.00;;;;;;5057348;28;20443;-86
2022/05/19 11:55:19;;;;;;;2.70;2.50;;;33.40;30.40;;;;;;5091188;28;20841;-88
2022/05/19 11:57:56;;;;;;;3.77;2.67;;;33.40;30.00;;;;;;5071494;28;20474;-88
2022/05/19 12:00:27;;;;;;;5.33;2.70;;;33.20;31.70;;;;;;5091717;27;20438;-87
2022/05/19 12:03:00;;;;;;;2.53;2.40;;;33.20;31.20;;;;;;5091192;28;20459;-87
2022/05/19 12:05:31;;;;;;;6.33;2.30;;;33.30;32.10;;;;;;5058774;28;20990;-90
2022/05/19 12:08:06;;;;;;;3.43;2.53;;;33.30;31.20;;;;;;5091607;28;20446;-87
2022/05/19 12:10:37;;;;;;;2.93;2.63;;;33.40;31.20;;;;;;5071043;28;20529;-87
2022/05/19 12:13:05;;;;;;;3.00;2.70;;;33.40;31.40;;;;;;5087558;28;20458;-88
2022/05/19 12:15:38;;;;;;;3.30;2.57;;;33.50;31.70;;;;;;5071001;28;20491;-88
2022/05/19 12:18:12;;;;;;;5.67;2.60;;;33.60;32.50;;;;;;5091976;28;20443;-88
2022/05/19 12:20:54;;;;;;;2.93;2.70;;;33.90;30.90;;;;;;5088613;28;21908;-88
2022/05/19 12:23:28;;;;;;;2.53;2.33;;;34.10;31.20;;;;;;5074759;28;20962;-86
2022/05/19 12:26:00;;;;;;;4.20;2.50;;;34.20;31.30;;;;;;5071321;28;20882;-88
2022/05/19 12:28:37;;;;;;;3.63;2.90;;;34.30;30.80;;;;;;5063580;28;20547;-88
2022/05/19 12:33:57;;;;;;;4.63;3.13;;;34.50;29.90;;;;;;5056687;28;20471;-88
2022/05/19 12:36:37;;;;;;;6.33;2.60;;;34.40;29.60;;;;;;5091509;28;20471;-87
2022/05/19 12:39:10;;;;;;;3.30;3.00;;;34.30;30.60;;;;;;5072408;28;20443;-88
2022/05/19 12:41:52;;;;;;;2.40;2.13;;;34.10;31.30;;;;;;5052580;28;20436;-87
2022/05/19 12:44:29;;;;;;;3.13;2.83;;;34.40;31.10;;;;;;5071715;28;20585;-89
2022/05/19 12:47:08;;;;;;;2.97;2.77;;;34.50;30.90;;;;;;5061157;28;20822;-86
2022/05/19 12:49:36;;;;;;;3.33;3.10;;;34.60;29.60;;;;;;5072977;28;20450;-87
2022/05/19 12:52:10;;;;;;;3.10;2.90;;;34.50;30.40;;;;;;5088506;28;20451;-89
2022/05/19 12:54:52;;;;;;;3.30;3.10;;;34.10;28.90;;;;;;5082786;28;20471;-89
2022/05/19 12:57:27;;;;;;;2.63;2.43;;;34.10;30.50;;;;;;5069603;28;20442;-87
2022/05/19 13:00:19;;;;;;;3.53;2.73;;;34.40;29.80;;;;;;5072612;28;20900;-87
2022/05/19 13:02:56;;;;;;;3.73;3.10;;;34.30;30.40;;;;;;5089019;28;20449;-87
2022/05/19 13:05:30;;;;;;;3.80;3.00;;;34.50;29.90;;;;;;5059338;28;20447;-87
2022/05/19 13:08:07;;;;;;;4.40;3.07;;;34.70;30.70;;;;;;5085014;28;20446;-87
2022/05/19 13:10:38;;;;;;;4.87;3.30;;;34.80;29.70;;;;;;5087055;28;20462;-87
2022/05/19 13:13:17;;;;;;;2.50;2.30;;;35.00;29.70;;;;;;5085243;28;20452;-87
2022/05/19 13:15:50;;;;;;;3.67;2.80;;;34.90;29.90;;;;;;5085044;28;20501;-89
2022/05/19 13:18:18;;;;;;;3.50;2.93;;;34.90;30.70;;;;;;5037644;28;20520;-88
2022/05/19 13:20:45;;;;;;;3.23;2.87;;;35.20;30.70;;;;;;5068052;28;20448;-87
2022/05/19 13:23:24;;;;;;;4.03;2.80;;;35.60;30.80;;;;;;5071089;28;20473;-88